This is the latest recevied weather packets stored in our database for station/object DO1AA. If no packets are shown the sender has not sent any weather packets the latest 10 day(s).
| Time | Temp. | Humidity | Pressure | Rain* | Wind** | Luminosity | Snow |
|---|---|---|---|---|---|---|---|
| 1777407603 | 6.11° C | 59% | 1012.6 hPa | 0 mm | - | - | - |
| 1777395003 | 15° C | 27% | 1011.5 hPa | 0 mm | - | - | - |
| 1777391404 | 16.67° C | 26% | 1011.4 hPa | 0 mm | - | - | - |
| 1777388404 | 16.11° C | 25% | 1011.5 hPa | 0 mm | - | - | - |
| 1777386004 | 16.11° C | 26% | 1011.8 hPa | 0 mm | - | - | - |
| 1777378204 | 15° C | 28% | 1012.3 hPa | 0 mm | - | - | - |
| 1777374604 | 15° C | 33% | 1012.4 hPa | 0 mm | - | - | - |
| 1777374004 | 15° C | 32% | 1012.4 hPa | 0 mm | - | - | - |
| 1777368604 | 13.89° C | 37% | 1012.6 hPa | 0 mm | - | - | - |
| 1777366204 | 12.22° C | 41% | 1012.6 hPa | 0 mm | - | - | - |
| 1777362004 | 10.56° C | 47% | 1012.2 hPa | 0 mm | - | - | - |
| 1777360805 | 10° C | 47% | 1011.9 hPa | 0 mm | - | - | - |
| 1777360203 | 9.44° C | 48% | 1012.1 hPa | 0 mm | - | - | - |
| 1777355404 | 7.78° C | 54% | 1011.9 hPa | 0 mm | - | - | - |
| 1777354803 | 7.22° C | 56% | 1011.7 hPa | 0 mm | - | - | - |
| 1777348203 | 5° C | 65% | 1011 hPa | 0 mm | - | - | - |
| 1777345806 | 5° C | 66% | 1010.6 hPa | 0 mm | - | - | - |
| 1777342803 | 5.56° C | 65% | 1010.6 hPa | 0 mm | - | - | - |
| 1777341604 | 5.56° C | 65% | 1010.6 hPa | 0 mm | - | - | - |
| 1777339804 | 6.11° C | 64% | 1010.3 hPa | 0 mm | - | - | - |
| 1777331403 | 8.33° C | 64% | 1010.1 hPa | 0 mm | - | - | - |
| 1777328403 | 9.44° C | 61% | 1009.8 hPa | 0 mm | - | - | - |
| 1777327205 | 10° C | 59% | 1009.7 hPa | 0 mm | - | - | - |
| 1777317004 | 11.67° C | 54% | 1009.4 hPa | 0 mm | - | - | - |
| 1777312808 | 13.89° C | 51% | 1009 hPa | 0 mm | - | - | - |
* Rain latest hour (hover to see other rain measurements)
** Current wind speed in m/s (hover to see current wind gust speed)